Maersk Damietta — A8OU4 — position and weather

sailwx.info

Track history (hours):
 
Tides and Currents Weather Stations Pressure Air Temp Water Temp Dewpoint Dewpoint Depression Visibility Wind Speed Wind Dir Waves Ship Positions

Maersk Damietta

Last reported at 2017-Mar-21 04:32 UTC. Time now 2017-Mar-23 12:25 UTC.
Position N 23°53' E 118°21'.

Length 293 m; draft 11.5 m.

Type: Ship (hazmat cat A). MMSI: 636091506.

Date/timePositionNaut miles runAvg speedWind from/ knotsBaromVisibWave heightAir tempDewpointWater temp
2017-Mar-21 04:32N 23°53' E 118°21'4614.2
2017-Mar-21 01:17N 24°21' E 119°01'44411.8
2017-Mar-19 11:33N 31°06' E 122°27'1111.5
2017-Mar-19 10:34N 31°09' E 122°14'1111.3
2017-Mar-19 09:34N 31°14' E 122°02'8 8.1
2017-Mar-19 08:34N 31°16' E 121°53'1110.8
2017-Mar-19 07:33N 31°20' E 121°41'2 1.5
2017-Mar-19 06:33N 31°20' E 121°39'0 0.0
2017-Mar-19 05:33N 31°20' E 121°39'0 0.0
2017-Mar-19 04:30N 31°20' E 121°39'0 0.0
2017-Mar-19 03:33N 31°20' E 121°39'0 0.0
2017-Mar-19 02:33N 31°20' E 121°39'0 0.0
2017-Mar-19 01:33N 31°20' E 121°39'0 0.0
2017-Mar-19 00:31N 31°20' E 121°39'0 0.0
2017-Mar-18 23:33N 31°20' E 121°39'0 0.0
2017-Mar-18 22:33N 31°20' E 121°39'0 0.0
2017-Mar-18 21:33N 31°20' E 121°39'0 0.0
2017-Mar-18 20:32N 31°20' E 121°39'0 0.1
2017-Mar-18 19:33N 31°20' E 121°39'5 4.9
2017-Mar-18 18:33N 31°19' E 121°45'9 9.5
2017-Mar-18 17:33N 31°16' E 121°55'10 9.7
2017-Mar-18 16:33N 31°14' E 122°06'1110.8
2017-Mar-18 15:33N 31°07' E 122°17'9 9.1
2017-Mar-18 14:33N 31°07' E 122°27'  
2017-Mar-12 23:27N 37°24' E 122°47'3114.2
2017-Mar-12 21:15N 37°46' E 122°19'1013.7
2017-Mar-12 20:31N 37°51' E 122°09'1414.1
2017-Mar-12 19:33N 37°59' E 121°55'1414.1
2017-Mar-12 18:33N 38°08' E 121°40'1413.8
2017-Mar-12 17:33N 38°16' E 121°26'1313.4
2017-Mar-12 16:33N 38°25' E 121°13'1312.9
2017-Mar-12 15:34N 38°31' E 120°59'1313.0
2017-Mar-12 14:33N 38°36' E 120°43'1413.7
2017-Mar-12 13:30N 38°37' E 120°25'  
Track history (hours):
 
Tides and Currents Weather Stations Pressure Air Temp Water Temp Dewpoint Dewpoint Depression Visibility Wind Speed Wind Dir Waves Ship Positions

Maersk Damietta

Last reported at 2017-Mar-21 04:32 UTC. Time now 2017-Mar-23 12:25 UTC.
Position N 23°53' E 118°21'.

Length 293 m; draft 11.5 m.

Type: Ship (hazmat cat A). MMSI: 636091506.

Date/timePositionNaut miles runAvg speedWind from/ knotsBaromVisibWave heightAir tempDewpointWater temp
2017-Mar-21 04:32N 23°53' E 118°21'4614.2
2017-Mar-21 01:17N 24°21' E 119°01'44411.8
2017-Mar-19 11:33N 31°06' E 122°27'1111.5
2017-Mar-19 10:34N 31°09' E 122°14'1111.3
2017-Mar-19 09:34N 31°14' E 122°02'8 8.1
2017-Mar-19 08:34N 31°16' E 121°53'1110.8
2017-Mar-19 07:33N 31°20' E 121°41'2 1.5
2017-Mar-19 06:33N 31°20' E 121°39'0 0.0
2017-Mar-19 05:33N 31°20' E 121°39'0 0.0
2017-Mar-19 04:30N 31°20' E 121°39'0 0.0
2017-Mar-19 03:33N 31°20' E 121°39'0 0.0
2017-Mar-19 02:33N 31°20' E 121°39'0 0.0
2017-Mar-19 01:33N 31°20' E 121°39'0 0.0
2017-Mar-19 00:31N 31°20' E 121°39'0 0.0
2017-Mar-18 23:33N 31°20' E 121°39'0 0.0
2017-Mar-18 22:33N 31°20' E 121°39'0 0.0
2017-Mar-18 21:33N 31°20' E 121°39'0 0.0
2017-Mar-18 20:32N 31°20' E 121°39'0 0.1
2017-Mar-18 19:33N 31°20' E 121°39'5 4.9
2017-Mar-18 18:33N 31°19' E 121°45'9 9.5
2017-Mar-18 17:33N 31°16' E 121°55'10 9.7
2017-Mar-18 16:33N 31°14' E 122°06'1110.8
2017-Mar-18 15:33N 31°07' E 122°17'9 9.1
2017-Mar-18 14:33N 31°07' E 122°27'  
2017-Mar-12 23:27N 37°24' E 122°47'3114.2
2017-Mar-12 21:15N 37°46' E 122°19'1013.7
2017-Mar-12 20:31N 37°51' E 122°09'1414.1
2017-Mar-12 19:33N 37°59' E 121°55'1414.1
2017-Mar-12 18:33N 38°08' E 121°40'1413.8
2017-Mar-12 17:33N 38°16' E 121°26'1313.4
2017-Mar-12 16:33N 38°25' E 121°13'1312.9
2017-Mar-12 15:34N 38°31' E 120°59'1313.0
2017-Mar-12 14:33N 38°36' E 120°43'1413.7
2017-Mar-12 13:30N 38°37' E 120°25'  

Dump ship's entire track history